sensor_id;sensor_type;location;lat;lon;timestamp;temperature;humidity
26743;DHT22;14341;51.256;22.478;2022-11-20T00:02:26;-7.60;99.90
26743;DHT22;14341;51.256;22.478;2022-11-20T00:05:32;-6.40;99.90
26743;DHT22;14341;51.256;22.478;2022-11-20T00:08:35;-6.60;99.90
26743;DHT22;14341;51.256;22.478;2022-11-20T00:11:40;-7.60;99.90
26743;DHT22;14341;51.256;22.478;2022-11-20T00:14:43;-7.30;99.90
26743;DHT22;14341;51.256;22.478;2022-11-20T00:17:46;-7.70;99.90
26743;DHT22;14341;51.256;22.478;2022-11-20T00:20:49;-7.70;99.90
26743;DHT22;14341;51.256;22.478;2022-11-20T00:23:55;-7.60;99.90
26743;DHT22;14341;51.256;22.478;2022-11-20T00:27:00;-7.70;99.90
26743;DHT22;14341;51.256;22.478;2022-11-20T00:30:04;-7.60;99.90
26743;DHT22;14341;51.256;22.478;2022-11-20T00:33:11;-7.90;99.90
26743;DHT22;14341;51.256;22.478;2022-11-20T00:36:16;-6.30;99.90
26743;DHT22;14341;51.256;22.478;2022-11-20T00:39:20;-6.70;99.90
26743;DHT22;14341;51.256;22.478;2022-11-20T00:42:25;-6.90;99.90
26743;DHT22;14341;51.256;22.478;2022-11-20T00:45:28;-5.80;99.90
26743;DHT22;14341;51.256;22.478;2022-11-20T00:48:32;-6.50;99.90
26743;DHT22;14341;51.256;22.478;2022-11-20T00:51:35;-7.30;99.90
26743;DHT22;14341;51.256;22.478;2022-11-20T00:54:38;-6.80;99.90
26743;DHT22;14341;51.256;22.478;2022-11-20T00:57:43;-6.40;99.90
26743;DHT22;14341;51.256;22.478;2022-11-20T01:00:46;-6.50;99.90
26743;DHT22;14341;51.256;22.478;2022-11-20T01:03:52;-5.80;99.90
26743;DHT22;14341;51.256;22.478;2022-11-20T01:06:55;-7.10;99.90
26743;DHT22;14341;51.256;22.478;2022-11-20T01:09:59;-5.70;99.90
26743;DHT22;14341;51.256;22.478;2022-11-20T01:13:03;-5.40;99.90
26743;DHT22;14341;51.256;22.478;2022-11-20T01:16:28;-6.30;99.90
26743;DHT22;14341;51.256;22.478;2022-11-20T01:19:31;-6.00;99.90
26743;DHT22;14341;51.256;22.478;2022-11-20T01:22:34;-5.20;99.90
26743;DHT22;14341;51.256;22.478;2022-11-20T01:25:38;-5.60;99.90
26743;DHT22;14341;51.256;22.478;2022-11-20T01:28:43;-5.00;99.90
26743;DHT22;14341;51.256;22.478;2022-11-20T01:31:46;-5.20;99.90
26743;DHT22;14341;51.256;22.478;2022-11-20T01:34:49;-5.10;99.90
26743;DHT22;14341;51.256;22.478;2022-11-20T01:37:52;-5.00;99.90
26743;DHT22;14341;51.256;22.478;2022-11-20T01:40:56;-4.90;99.90
26743;DHT22;14341;51.256;22.478;2022-11-20T01:44:01;-3.70;99.90
26743;DHT22;14341;51.256;22.478;2022-11-20T01:47:05;-4.40;99.90
26743;DHT22;14341;51.256;22.478;2022-11-20T01:50:13;-4.50;99.90
26743;DHT22;14341;51.256;22.478;2022-11-20T01:53:20;-4.40;99.90
26743;DHT22;14341;51.256;22.478;2022-11-20T01:56:25;-4.40;99.90
26743;DHT22;14341;51.256;22.478;2022-11-20T01:59:31;-4.40;99.90
26743;DHT22;14341;51.256;22.478;2022-11-20T02:02:34;-4.30;99.90
26743;DHT22;14341;51.256;22.478;2022-11-20T02:05:40;-4.30;99.90
26743;DHT22;14341;51.256;22.478;2022-11-20T02:08:46;-4.30;99.90
26743;DHT22;14341;51.256;22.478;2022-11-20T02:11:49;-4.40;99.90
26743;DHT22;14341;51.256;22.478;2022-11-20T02:14:54;-4.30;99.90
26743;DHT22;14341;51.256;22.478;2022-11-20T02:17:56;-4.20;99.90
26743;DHT22;14341;51.256;22.478;2022-11-20T02:21:03;-4.30;99.90
26743;DHT22;14341;51.256;22.478;2022-11-20T02:24:12;-4.30;99.90
26743;DHT22;14341;51.256;22.478;2022-11-20T02:27:18;-4.10;99.90
26743;DHT22;14341;51.256;22.478;2022-11-20T02:30:24;-4.00;99.90
26743;DHT22;14341;51.256;22.478;2022-11-20T02:33:27;-3.80;99.90
26743;DHT22;14341;51.256;22.478;2022-11-20T02:36:32;-4.00;99.90
26743;DHT22;14341;51.256;22.478;2022-11-20T02:39:37;-3.90;99.90
26743;DHT22;14341;51.256;22.478;2022-11-20T02:42:40;-2.90;99.90
26743;DHT22;14341;51.256;22.478;2022-11-20T02:45:43;-3.90;99.90
26743;DHT22;14341;51.256;22.478;2022-11-20T02:48:46;-3.80;99.90
26743;DHT22;14341;51.256;22.478;2022-11-20T02:51:50;-3.80;99.90
26743;DHT22;14341;51.256;22.478;2022-11-20T02:54:54;-3.80;99.90
26743;DHT22;14341;51.256;22.478;2022-11-20T02:57:58;-3.70;99.90
26743;DHT22;14341;51.256;22.478;2022-11-20T03:01:01;-3.70;99.90
26743;DHT22;14341;51.256;22.478;2022-11-20T03:04:04;-2.50;99.90
26743;DHT22;14341;51.256;22.478;2022-11-20T03:07:08;-2.50;99.90
26743;DHT22;14341;51.256;22.478;2022-11-20T03:10:13;-3.70;99.90
26743;DHT22;14341;51.256;22.478;2022-11-20T03:13:16;-3.60;99.90
26743;DHT22;14341;51.256;22.478;2022-11-20T03:16:22;-3.50;99.90
26743;DHT22;14341;51.256;22.478;2022-11-20T03:19:25;-3.50;99.90
26743;DHT22;14341;51.256;22.478;2022-11-20T03:22:29;-3.40;99.90
26743;DHT22;14341;51.256;22.478;2022-11-20T03:25:34;-3.30;99.90
26743;DHT22;14341;51.256;22.478;2022-11-20T03:28:37;-3.20;99.90
26743;DHT22;14341;51.256;22.478;2022-11-20T03:31:41;-3.20;99.90
26743;DHT22;14341;51.256;22.478;2022-11-20T03:34:44;-3.20;99.90
26743;DHT22;14341;51.256;22.478;2022-11-20T03:37:47;-2.30;99.90
26743;DHT22;14341;51.256;22.478;2022-11-20T03:40:58;-3.10;99.90
26743;DHT22;14341;51.256;22.478;2022-11-20T03:44:03;-3.10;99.90
26743;DHT22;14341;51.256;22.478;2022-11-20T03:47:07;-3.10;99.90
26743;DHT22;14341;51.256;22.478;2022-11-20T03:50:11;-3.10;99.90
26743;DHT22;14341;51.256;22.478;2022-11-20T03:53:15;-3.10;99.90
26743;DHT22;14341;51.256;22.478;2022-11-20T03:56:23;-3.10;99.90
26743;DHT22;14341;51.256;22.478;2022-11-20T03:59:26;-2.80;99.90
26743;DHT22;14341;51.256;22.478;2022-11-20T04:02:29;-3.10;99.90
26743;DHT22;14341;51.256;22.478;2022-11-20T04:05:33;-3.10;99.90
26743;DHT22;14341;51.256;22.478;2022-11-20T04:08:37;-3.10;99.90
26743;DHT22;14341;51.256;22.478;2022-11-20T04:11:42;-3.20;99.90
26743;DHT22;14341;51.256;22.478;2022-11-20T04:14:45;-3.30;99.90
26743;DHT22;14341;51.256;22.478;2022-11-20T04:17:48;-3.40;99.90
26743;DHT22;14341;51.256;22.478;2022-11-20T04:20:51;-3.40;99.90
26743;DHT22;14341;51.256;22.478;2022-11-20T04:23:55;-2.20;99.90
26743;DHT22;14341;51.256;22.478;2022-11-20T04:27:00;-3.60;99.90
26743;DHT22;14341;51.256;22.478;2022-11-20T04:30:04;-3.70;99.90
26743;DHT22;14341;51.256;22.478;2022-11-20T04:33:07;-3.70;99.90
26743;DHT22;14341;51.256;22.478;2022-11-20T04:36:14;-3.80;99.90
26743;DHT22;14341;51.256;22.478;2022-11-20T04:39:17;-3.80;99.90
26743;DHT22;14341;51.256;22.478;2022-11-20T04:42:22;-3.90;99.90
26743;DHT22;14341;51.256;22.478;2022-11-20T04:45:32;-3.90;99.90
26743;DHT22;14341;51.256;22.478;2022-11-20T04:48:35;-2.80;99.90
26743;DHT22;14341;51.256;22.478;2022-11-20T04:51:38;-3.90;99.90
26743;DHT22;14341;51.256;22.478;2022-11-20T04:54:41;-3.80;99.90
26743;DHT22;14341;51.256;22.478;2022-11-20T04:57:49;-3.80;99.90
26743;DHT22;14341;51.256;22.478;2022-11-20T05:00:53;-3.00;99.90
26743;DHT22;14341;51.256;22.478;2022-11-20T05:03:56;-3.90;99.90
26743;DHT22;14341;51.256;22.478;2022-11-20T05:07:00;-3.90;99.90
26743;DHT22;14341;51.256;22.478;2022-11-20T05:10:04;-3.90;99.90
26743;DHT22;14341;51.256;22.478;2022-11-20T05:13:09;-4.10;99.90
26743;DHT22;14341;51.256;22.478;2022-11-20T05:16:14;-2.90;99.90
26743;DHT22;14341;51.256;22.478;2022-11-20T05:19:17;-4.30;99.90
26743;DHT22;14341;51.256;22.478;2022-11-20T05:22:21;-4.10;99.90
26743;DHT22;14341;51.256;22.478;2022-11-20T05:25:25;-4.20;99.90
26743;DHT22;14341;51.256;22.478;2022-11-20T05:28:30;-4.40;99.90
26743;DHT22;14341;51.256;22.478;2022-11-20T05:31:34;-4.20;99.90
26743;DHT22;14341;51.256;22.478;2022-11-20T05:34:38;-4.40;99.90
26743;DHT22;14341;51.256;22.478;2022-11-20T05:37:41;-4.00;99.90
26743;DHT22;14341;51.256;22.478;2022-11-20T05:40:44;-4.10;99.90
26743;DHT22;14341;51.256;22.478;2022-11-20T05:43:49;-4.10;99.90
26743;DHT22;14341;51.256;22.478;2022-11-20T05:46:52;-4.70;99.90
26743;DHT22;14341;51.256;22.478;2022-11-20T05:49:55;-4.70;99.90
26743;DHT22;14341;51.256;22.478;2022-11-20T05:52:59;-4.90;99.90
26743;DHT22;14341;51.256;22.478;2022-11-20T05:56:04;-5.00;99.90
26743;DHT22;14341;51.256;22.478;2022-11-20T05:59:09;-5.10;99.90
26743;DHT22;14341;51.256;22.478;2022-11-20T06:02:12;-5.00;99.90
26743;DHT22;14341;51.256;22.478;2022-11-20T06:05:16;-5.20;99.90
26743;DHT22;14341;51.256;22.478;2022-11-20T06:08:19;-5.20;99.90
26743;DHT22;14341;51.256;22.478;2022-11-20T06:11:22;-5.20;99.90
26743;DHT22;14341;51.256;22.478;2022-11-20T06:14:27;-5.20;99.90
26743;DHT22;14341;51.256;22.478;2022-11-20T06:17:30;-5.20;99.90
26743;DHT22;14341;51.256;22.478;2022-11-20T06:20:33;-5.10;99.90
26743;DHT22;14341;51.256;22.478;2022-11-20T06:23:43;-5.30;99.90
26743;DHT22;14341;51.256;22.478;2022-11-20T06:26:47;-3.90;99.90
26743;DHT22;14341;51.256;22.478;2022-11-20T06:29:51;-5.20;99.90
26743;DHT22;14341;51.256;22.478;2022-11-20T06:32:54;-5.10;99.90
26743;DHT22;14341;51.256;22.478;2022-11-20T06:35:58;-4.80;99.90
26743;DHT22;14341;51.256;22.478;2022-11-20T06:39:08;-5.00;99.90
26743;DHT22;14341;51.256;22.478;2022-11-20T06:42:11;-4.90;99.90
26743;DHT22;14341;51.256;22.478;2022-11-20T06:45:16;-4.20;99.90
26743;DHT22;14341;51.256;22.478;2022-11-20T06:48:19;-4.90;99.90
26743;DHT22;14341;51.256;22.478;2022-11-20T06:51:23;-4.70;99.90
26743;DHT22;14341;51.256;22.478;2022-11-20T06:54:26;-3.30;99.90
26743;DHT22;14341;51.256;22.478;2022-11-20T06:57:30;-3.40;99.90
26743;DHT22;14341;51.256;22.478;2022-11-20T07:00:35;-3.90;99.90
26743;DHT22;14341;51.256;22.478;2022-11-20T07:03:38;-4.40;99.90
26743;DHT22;14341;51.256;22.478;2022-11-20T07:06:42;-4.40;99.90
26743;DHT22;14341;51.256;22.478;2022-11-20T07:09:45;-3.60;99.90
26743;DHT22;14341;51.256;22.478;2022-11-20T07:12:49;-3.90;99.90
26743;DHT22;14341;51.256;22.478;2022-11-20T07:15:55;-4.00;99.90
26743;DHT22;14341;51.256;22.478;2022-11-20T07:19:04;-3.90;99.90
26743;DHT22;14341;51.256;22.478;2022-11-20T07:22:08;-3.70;99.90
26743;DHT22;14341;51.256;22.478;2022-11-20T07:25:11;-3.50;99.90
26743;DHT22;14341;51.256;22.478;2022-11-20T07:28:14;-2.70;99.90
26743;DHT22;14341;51.256;22.478;2022-11-20T07:31:19;-3.30;99.90
26743;DHT22;14341;51.256;22.478;2022-11-20T07:34:23;-3.10;99.90
26743;DHT22;14341;51.256;22.478;2022-11-20T07:37:26;-2.00;99.90
26743;DHT22;14341;51.256;22.478;2022-11-20T07:40:30;-3.00;99.90
26743;DHT22;14341;51.256;22.478;2022-11-20T07:43:34;-2.60;99.90
26743;DHT22;14341;51.256;22.478;2022-11-20T07:46:43;-2.90;99.90
26743;DHT22;14341;51.256;22.478;2022-11-20T07:49:47;-1.60;99.90
26743;DHT22;14341;51.256;22.478;2022-11-20T07:52:51;-1.50;99.90
26743;DHT22;14341;51.256;22.478;2022-11-20T07:55:55;-2.70;99.90
26743;DHT22;14341;51.256;22.478;2022-11-20T07:59:02;-2.60;99.90
26743;DHT22;14341;51.256;22.478;2022-11-20T08:02:10;-1.90;99.90
26743;DHT22;14341;51.256;22.478;2022-11-20T08:05:13;-1.70;99.90
26743;DHT22;14341;51.256;22.478;2022-11-20T08:08:16;-2.40;99.90
26743;DHT22;14341;51.256;22.478;2022-11-20T08:11:20;-2.40;99.90
26743;DHT22;14341;51.256;22.478;2022-11-20T08:14:40;-2.30;99.90
26743;DHT22;14341;51.256;22.478;2022-11-20T08:17:45;-2.30;99.90
26743;DHT22;14341;51.256;22.478;2022-11-20T08:21:08;-2.20;99.90
26743;DHT22;14341;51.256;22.478;2022-11-20T08:24:11;-2.10;99.90
26743;DHT22;14341;51.256;22.478;2022-11-20T08:27:15;-2.10;99.90
26743;DHT22;14341;51.256;22.478;2022-11-20T08:30:18;-2.10;99.90
26743;DHT22;14341;51.256;22.478;2022-11-20T08:33:23;-2.10;99.90
26743;DHT22;14341;51.256;22.478;2022-11-20T08:36:26;-0.90;99.90
26743;DHT22;14341;51.256;22.478;2022-11-20T08:39:30;-1.50;99.90
26743;DHT22;14341;51.256;22.478;2022-11-20T08:42:33;-1.90;99.90
26743;DHT22;14341;51.256;22.478;2022-11-20T08:45:36;-2.00;99.90
26743;DHT22;14341;51.256;22.478;2022-11-20T08:48:41;-1.90;99.90
26743;DHT22;14341;51.256;22.478;2022-11-20T08:51:44;-1.20;99.90
26743;DHT22;14341;51.256;22.478;2022-11-20T08:54:50;-1.70;99.90
26743;DHT22;14341;51.256;22.478;2022-11-20T08:57:53;-1.20;99.90
26743;DHT22;14341;51.256;22.478;2022-11-20T09:00:56;-1.70;99.90
26743;DHT22;14341;51.256;22.478;2022-11-20T09:04:01;-1.70;99.90
26743;DHT22;14341;51.256;22.478;2022-11-20T09:07:06;-1.80;99.90
26743;DHT22;14341;51.256;22.478;2022-11-20T09:10:10;-1.80;99.90
26743;DHT22;14341;51.256;22.478;2022-11-20T09:13:29;-0.40;99.90
26743;DHT22;14341;51.256;22.478;2022-11-20T09:16:32;-1.60;99.90
26743;DHT22;14341;51.256;22.478;2022-11-20T09:19:37;-0.70;99.90
26743;DHT22;14341;51.256;22.478;2022-11-20T09:22:40;-1.40;99.90
26743;DHT22;14341;51.256;22.478;2022-11-20T09:25:43;-0.90;99.90
26743;DHT22;14341;51.256;22.478;2022-11-20T09:28:47;-1.40;99.90
26743;DHT22;14341;51.256;22.478;2022-11-20T09:31:56;-1.10;99.90
26743;DHT22;14341;51.256;22.478;2022-11-20T09:35:00;-0.60;99.90
26743;DHT22;14341;51.256;22.478;2022-11-20T09:38:05;-1.30;99.90
26743;DHT22;14341;51.256;22.478;2022-11-20T09:41:24;-1.10;99.90
26743;DHT22;14341;51.256;22.478;2022-11-20T09:44:46;-1.30;99.90
26743;DHT22;14341;51.256;22.478;2022-11-20T09:48:04;-1.40;99.90
26743;DHT22;14341;51.256;22.478;2022-11-20T09:51:16;-1.30;99.90
26743;DHT22;14341;51.256;22.478;2022-11-20T09:54:27;-1.30;99.90
26743;DHT22;14341;51.256;22.478;2022-11-20T09:57:36;-1.40;99.90
26743;DHT22;14341;51.256;22.478;2022-11-20T10:00:40;-1.30;99.90
26743;DHT22;14341;51.256;22.478;2022-11-20T10:03:52;-1.40;99.90
26743;DHT22;14341;51.256;22.478;2022-11-20T10:07:04;-1.20;99.90
26743;DHT22;14341;51.256;22.478;2022-11-20T10:10:36;-1.20;99.90
26743;DHT22;14341;51.256;22.478;2022-11-20T10:13:55;-1.20;99.90
26743;DHT22;14341;51.256;22.478;2022-11-20T10:17:08;-1.40;99.90
26743;DHT22;14341;51.256;22.478;2022-11-20T10:20:19;-1.40;99.90
26743;DHT22;14341;51.256;22.478;2022-11-20T10:23:41;-1.40;99.90
26743;DHT22;14341;51.256;22.478;2022-11-20T10:26:51;-1.30;99.90
26743;DHT22;14341;51.256;22.478;2022-11-20T10:30:02;-1.30;99.90
26743;DHT22;14341;51.256;22.478;2022-11-20T10:33:15;-0.40;99.90
26743;DHT22;14341;51.256;22.478;2022-11-20T10:36:22;-1.20;99.90
26743;DHT22;14341;51.256;22.478;2022-11-20T10:39:34;-1.20;99.90
26743;DHT22;14341;51.256;22.478;2022-11-20T10:42:44;-1.10;99.90
26743;DHT22;14341;51.256;22.478;2022-11-20T10:45:53;-1.10;99.90
26743;DHT22;14341;51.256;22.478;2022-11-20T10:48:59;-1.20;99.90
26743;DHT22;14341;51.256;22.478;2022-11-20T10:52:10;-1.20;99.90
26743;DHT22;14341;51.256;22.478;2022-11-20T10:55:26;-1.20;99.90
26743;DHT22;14341;51.256;22.478;2022-11-20T10:58:37;-1.00;99.90
26743;DHT22;14341;51.256;22.478;2022-11-20T11:01:43;-1.10;99.90
26743;DHT22;14341;51.256;22.478;2022-11-20T11:04:48;-0.30;99.90
26743;DHT22;14341;51.256;22.478;2022-11-20T11:07:54;-1.00;99.90
26743;DHT22;14341;51.256;22.478;2022-11-20T11:11:05;-0.90;99.90
26743;DHT22;14341;51.256;22.478;2022-11-20T11:14:15;-0.90;99.90
26743;DHT22;14341;51.256;22.478;2022-11-20T11:17:25;-1.00;99.90
26743;DHT22;14341;51.256;22.478;2022-11-20T11:20:38;-0.90;99.90
26743;DHT22;14341;51.256;22.478;2022-11-20T11:24:00;-0.90;99.90
26743;DHT22;14341;51.256;22.478;2022-11-20T11:27:25;-1.00;99.90
26743;DHT22;14341;51.256;22.478;2022-11-20T11:30:40;-0.90;99.90
26743;DHT22;14341;51.256;22.478;2022-11-20T11:33:44;-1.00;99.90
26743;DHT22;14341;51.256;22.478;2022-11-20T11:36:54;-0.80;99.90
26743;DHT22;14341;51.256;22.478;2022-11-20T11:39:58;-1.10;99.90
26743;DHT22;14341;51.256;22.478;2022-11-20T11:43:26;-1.10;99.90
26743;DHT22;14341;51.256;22.478;2022-11-20T11:46:53;-1.00;99.90
26743;DHT22;14341;51.256;22.478;2022-11-20T11:50:02;-1.00;99.90
26743;DHT22;14341;51.256;22.478;2022-11-20T11:53:09;-1.10;99.90
26743;DHT22;14341;51.256;22.478;2022-11-20T11:56:15;-0.40;99.90
26743;DHT22;14341;51.256;22.478;2022-11-20T11:59:25;-0.40;99.90
26743;DHT22;14341;51.256;22.478;2022-11-20T12:02:35;-0.40;99.90
26743;DHT22;14341;51.256;22.478;2022-11-20T12:05:43;-1.00;99.90
26743;DHT22;14341;51.256;22.478;2022-11-20T12:08:51;-0.90;99.90
26743;DHT22;14341;51.256;22.478;2022-11-20T12:12:01;-0.90;99.90
26743;DHT22;14341;51.256;22.478;2022-11-20T12:15:11;-0.70;99.90
26743;DHT22;14341;51.256;22.478;2022-11-20T12:18:18;-0.80;99.90
26743;DHT22;14341;51.256;22.478;2022-11-20T12:21:31;-0.30;99.90
26743;DHT22;14341;51.256;22.478;2022-11-20T12:24:48;-0.80;99.90
26743;DHT22;14341;51.256;22.478;2022-11-20T12:28:14;-0.80;99.90
26743;DHT22;14341;51.256;22.478;2022-11-20T12:31:39;-0.90;99.90
26743;DHT22;14341;51.256;22.478;2022-11-20T12:34:55;-0.80;99.90
26743;DHT22;14341;51.256;22.478;2022-11-20T12:38:42;-0.70;99.90
26743;DHT22;14341;51.256;22.478;2022-11-20T12:41:58;-0.70;99.90
26743;DHT22;14341;51.256;22.478;2022-11-20T12:45:46;-0.90;99.90
26743;DHT22;14341;51.256;22.478;2022-11-20T12:49:06;-0.90;99.90
26743;DHT22;14341;51.256;22.478;2022-11-20T12:52:24;-1.10;99.90
26743;DHT22;14341;51.256;22.478;2022-11-20T12:55:40;-1.10;99.90
26743;DHT22;14341;51.256;22.478;2022-11-20T12:58:56;-1.10;99.90
26743;DHT22;14341;51.256;22.478;2022-11-20T13:02:14;-1.10;99.90
26743;DHT22;14341;51.256;22.478;2022-11-20T13:05:30;-1.10;99.90
26743;DHT22;14341;51.256;22.478;2022-11-20T13:08:36;-1.10;99.90
26743;DHT22;14341;51.256;22.478;2022-11-20T13:11:46;-1.10;99.90
26743;DHT22;14341;51.256;22.478;2022-11-20T13:14:55;-1.10;99.90
26743;DHT22;14341;51.256;22.478;2022-11-20T13:18:05;-1.10;99.90
26743;DHT22;14341;51.256;22.478;2022-11-20T13:21:18;-1.10;99.90
26743;DHT22;14341;51.256;22.478;2022-11-20T13:24:26;-1.00;99.90
26743;DHT22;14341;51.256;22.478;2022-11-20T13:27:32;-1.10;99.90
26743;DHT22;14341;51.256;22.478;2022-11-20T13:30:48;-1.30;99.90
26743;DHT22;14341;51.256;22.478;2022-11-20T13:33:54;-1.30;99.90
26743;DHT22;14341;51.256;22.478;2022-11-20T13:37:00;-1.40;99.90
26743;DHT22;14341;51.256;22.478;2022-11-20T13:40:12;-1.40;99.90
26743;DHT22;14341;51.256;22.478;2022-11-20T13:43:21;-1.40;99.90
26743;DHT22;14341;51.256;22.478;2022-11-20T13:46:36;-1.40;99.90
26743;DHT22;14341;51.256;22.478;2022-11-20T13:49:40;-1.40;99.90
26743;DHT22;14341;51.256;22.478;2022-11-20T13:52:55;-1.30;99.90
26743;DHT22;14341;51.256;22.478;2022-11-20T13:56:09;-1.30;99.90
26743;DHT22;14341;51.256;22.478;2022-11-20T13:59:33;-1.30;99.90
26743;DHT22;14341;51.256;22.478;2022-11-20T14:02:40;-1.30;99.90
26743;DHT22;14341;51.256;22.478;2022-11-20T14:05:53;-1.40;99.90
26743;DHT22;14341;51.256;22.478;2022-11-20T14:09:00;-1.40;99.90
26743;DHT22;14341;51.256;22.478;2022-11-20T14:12:13;-0.80;99.90
26743;DHT22;14341;51.256;22.478;2022-11-20T14:15:25;-0.70;99.90
26743;DHT22;14341;51.256;22.478;2022-11-20T14:18:29;-0.80;99.90
26743;DHT22;14341;51.256;22.478;2022-11-20T14:21:32;-1.40;99.90
26743;DHT22;14341;51.256;22.478;2022-11-20T14:24:38;-1.20;99.90
26743;DHT22;14341;51.256;22.478;2022-11-20T14:27:43;-1.40;99.90
26743;DHT22;14341;51.256;22.478;2022-11-20T14:30:48;-1.50;99.90
26743;DHT22;14341;51.256;22.478;2022-11-20T14:33:52;-1.50;99.90
26743;DHT22;14341;51.256;22.478;2022-11-20T14:36:59;-1.60;99.90
26743;DHT22;14341;51.256;22.478;2022-11-20T14:40:22;-1.70;99.90
26743;DHT22;14341;51.256;22.478;2022-11-20T14:43:28;-1.80;99.90
26743;DHT22;14341;51.256;22.478;2022-11-20T14:46:32;-1.80;99.90
26743;DHT22;14341;51.256;22.478;2022-11-20T14:49:37;-1.80;99.90
26743;DHT22;14341;51.256;22.478;2022-11-20T14:52:50;-2.10;99.90
26743;DHT22;14341;51.256;22.478;2022-11-20T14:56:00;-2.30;99.90
26743;DHT22;14341;51.256;22.478;2022-11-20T14:59:04;-2.30;99.90
26743;DHT22;14341;51.256;22.478;2022-11-20T15:02:10;-2.40;99.90
26743;DHT22;14341;51.256;22.478;2022-11-20T15:05:14;-2.40;99.90
26743;DHT22;14341;51.256;22.478;2022-11-20T15:08:18;-2.50;99.90
26743;DHT22;14341;51.256;22.478;2022-11-20T15:11:28;-2.50;99.90
26743;DHT22;14341;51.256;22.478;2022-11-20T15:14:32;-2.60;99.90
26743;DHT22;14341;51.256;22.478;2022-11-20T15:17:37;-2.60;99.90
26743;DHT22;14341;51.256;22.478;2022-11-20T15:20:42;-2.60;99.90
26743;DHT22;14341;51.256;22.478;2022-11-20T15:23:46;-1.60;99.90
26743;DHT22;14341;51.256;22.478;2022-11-20T15:26:51;-2.80;99.90
26743;DHT22;14341;51.256;22.478;2022-11-20T15:29:54;-1.60;99.90
26743;DHT22;14341;51.256;22.478;2022-11-20T15:32:58;-2.60;99.90
26743;DHT22;14341;51.256;22.478;2022-11-20T15:36:01;-2.70;99.90
26743;DHT22;14341;51.256;22.478;2022-11-20T15:39:04;-2.60;99.90
26743;DHT22;14341;51.256;22.478;2022-11-20T15:42:10;-2.60;99.90
26743;DHT22;14341;51.256;22.478;2022-11-20T15:45:13;-2.50;99.90
26743;DHT22;14341;51.256;22.478;2022-11-20T15:48:19;-2.40;99.90
26743;DHT22;14341;51.256;22.478;2022-11-20T15:51:26;-2.30;99.90
26743;DHT22;14341;51.256;22.478;2022-11-20T15:54:29;-2.20;99.90
26743;DHT22;14341;51.256;22.478;2022-11-20T15:57:38;-2.30;99.90
26743;DHT22;14341;51.256;22.478;2022-11-20T16:00:41;-1.40;99.90
26743;DHT22;14341;51.256;22.478;2022-11-20T16:03:44;-2.40;99.90
26743;DHT22;14341;51.256;22.478;2022-11-20T16:06:48;-2.40;99.90
26743;DHT22;14341;51.256;22.478;2022-11-20T16:09:51;-1.80;99.90
26743;DHT22;14341;51.256;22.478;2022-11-20T16:12:55;-2.40;99.90
26743;DHT22;14341;51.256;22.478;2022-11-20T16:16:19;-2.30;99.90
26743;DHT22;14341;51.256;22.478;2022-11-20T16:19:24;-2.50;99.90
26743;DHT22;14341;51.256;22.478;2022-11-20T16:22:27;-1.80;99.90
26743;DHT22;14341;51.256;22.478;2022-11-20T16:25:31;-2.50;99.90
26743;DHT22;14341;51.256;22.478;2022-11-20T16:28:36;-1.80;99.90
26743;DHT22;14341;51.256;22.478;2022-11-20T16:31:39;-2.00;99.90
26743;DHT22;14341;51.256;22.478;2022-11-20T16:34:42;-2.60;99.90
26743;DHT22;14341;51.256;22.478;2022-11-20T16:37:46;-2.80;99.90
26743;DHT22;14341;51.256;22.478;2022-11-20T16:40:49;-2.90;99.90
26743;DHT22;14341;51.256;22.478;2022-11-20T16:43:55;-2.90;99.90
26743;DHT22;14341;51.256;22.478;2022-11-20T16:47:00;-3.10;99.90
26743;DHT22;14341;51.256;22.478;2022-11-20T16:50:04;-3.30;99.90
26743;DHT22;14341;51.256;22.478;2022-11-20T16:53:08;-3.40;99.90
26743;DHT22;14341;51.256;22.478;2022-11-20T16:56:12;-2.40;99.90
26743;DHT22;14341;51.256;22.478;2022-11-20T16:59:18;-3.50;99.90
26743;DHT22;14341;51.256;22.478;2022-11-20T17:02:22;-3.70;99.90
26743;DHT22;14341;51.256;22.478;2022-11-20T17:05:25;-2.60;99.90
26743;DHT22;14341;51.256;22.478;2022-11-20T17:08:31;-3.40;99.90
26743;DHT22;14341;51.256;22.478;2022-11-20T17:11:35;-3.50;99.90
26743;DHT22;14341;51.256;22.478;2022-11-20T17:14:40;-4.10;99.90
26743;DHT22;14341;51.256;22.478;2022-11-20T17:17:44;-2.80;99.90
26743;DHT22;14341;51.256;22.478;2022-11-20T17:20:51;-3.60;99.90
26743;DHT22;14341;51.256;22.478;2022-11-20T17:23:54;-4.00;99.90
26743;DHT22;14341;51.256;22.478;2022-11-20T17:26:58;-2.90;99.90
26743;DHT22;14341;51.256;22.478;2022-11-20T17:30:03;-3.40;99.90
26743;DHT22;14341;51.256;22.478;2022-11-20T17:33:06;-4.00;99.90
26743;DHT22;14341;51.256;22.478;2022-11-20T17:36:11;-4.00;99.90
26743;DHT22;14341;51.256;22.478;2022-11-20T17:39:16;-3.20;99.90
26743;DHT22;14341;51.256;22.478;2022-11-20T17:42:20;-3.80;99.90
26743;DHT22;14341;51.256;22.478;2022-11-20T17:45:34;-3.90;99.90
26743;DHT22;14341;51.256;22.478;2022-11-20T17:48:38;-3.90;99.90
26743;DHT22;14341;51.256;22.478;2022-11-20T17:51:59;-4.10;99.90
26743;DHT22;14341;51.256;22.478;2022-11-20T17:55:03;-4.10;99.90
26743;DHT22;14341;51.256;22.478;2022-11-20T17:58:07;-4.10;99.90
26743;DHT22;14341;51.256;22.478;2022-11-20T18:01:10;-3.70;99.90
26743;DHT22;14341;51.256;22.478;2022-11-20T18:04:14;-4.10;99.90
26743;DHT22;14341;51.256;22.478;2022-11-20T18:07:17;-4.00;99.90
26743;DHT22;14341;51.256;22.478;2022-11-20T18:10:20;-4.00;99.90
26743;DHT22;14341;51.256;22.478;2022-11-20T18:13:24;-3.10;99.90
26743;DHT22;14341;51.256;22.478;2022-11-20T18:16:52;-3.00;99.90
26743;DHT22;14341;51.256;22.478;2022-11-20T18:19:56;-3.30;99.90
26743;DHT22;14341;51.256;22.478;2022-11-20T18:23:20;-3.90;99.90
26743;DHT22;14341;51.256;22.478;2022-11-20T18:26:24;-3.90;99.90
26743;DHT22;14341;51.256;22.478;2022-11-20T18:29:28;-3.80;99.90
26743;DHT22;14341;51.256;22.478;2022-11-20T18:32:34;-3.70;99.90
26743;DHT22;14341;51.256;22.478;2022-11-20T18:35:38;-3.50;99.90
26743;DHT22;14341;51.256;22.478;2022-11-20T18:38:45;-3.60;99.90
26743;DHT22;14341;51.256;22.478;2022-11-20T18:41:49;-3.60;99.90
26743;DHT22;14341;51.256;22.478;2022-11-20T18:45:10;-3.40;99.90
26743;DHT22;14341;51.256;22.478;2022-11-20T18:48:15;-3.30;99.90
26743;DHT22;14341;51.256;22.478;2022-11-20T18:51:19;-3.10;99.90
26743;DHT22;14341;51.256;22.478;2022-11-20T18:54:22;-3.10;99.90
26743;DHT22;14341;51.256;22.478;2022-11-20T18:57:29;-3.00;99.90
26743;DHT22;14341;51.256;22.478;2022-11-20T19:00:34;-2.70;99.90
26743;DHT22;14341;51.256;22.478;2022-11-20T19:03:39;-2.80;99.90
26743;DHT22;14341;51.256;22.478;2022-11-20T19:06:45;-2.70;99.90
26743;DHT22;14341;51.256;22.478;2022-11-20T19:09:50;-2.70;99.90
26743;DHT22;14341;51.256;22.478;2022-11-20T19:12:55;-2.70;99.90
26743;DHT22;14341;51.256;22.478;2022-11-20T19:16:01;-2.70;99.90
26743;DHT22;14341;51.256;22.478;2022-11-20T19:19:06;-2.80;99.90
26743;DHT22;14341;51.256;22.478;2022-11-20T19:22:09;-2.50;99.90